Portada
METAR-TAF:

METAR-TAF

Aeropuertos :

Aeropuerto de Huesca-Pirineos

Huesca, España

latitud: 42-04-32N, longitud: 0-18-58W, altitud: 539 m

Observación

El informe se hizo hace 35 minutos, a las 04:00 UTC
Viento 7 kt del oeste-suroeste
Temperatura 3°C
Humedad 93%
Presión 1020 hPa
Visibilidad 10 km o más

METAR: LEHC 150400Z AUTO 24007KT 9999 NCD 03/02 Q1020

Hora: 05:35 (04:35 UTC)

Pronóstico

El informe se hizo hace 2 horas y 35 minutos, a las 02:00 UTC
Pronóstico válido del 15 a las 03 UTC al 16 a las 03 UTC
Viento 12 kt del oeste-noroeste
Visibilidad 10 km o más
Escasas nubes a una altura de 4000 ft

TAF: LEHC 150200Z 1503/1603 29012KT 9999 FEW040 TX13/1513Z TN03/1506Z

Observaciones y pronósticos meteorológicos de más de 4000 aeropuertos (mensajes METAR y TAF).

Los puntos amarillos y rojos representan las estaciones disponibles.

Ponga el ratón en el punto deseado para ver el nombre de la estación.

Haga clic para ver las observaciones y los pronósticos meteorológicos.

Para cambiar el mapa : haga clic en los botones verdes con una cruz de color negro para hacer un zoom, en el botón verde con un guión para alejar o en las flechas verdes para mapas adyacentes.


METAR-TAF: